createdAt,value
2019-05-03T00:05:02.288Z,19.57
2019-05-03T00:10:22.357Z,18.17
2019-05-03T00:15:58.938Z,15.63
2019-05-03T00:21:15.199Z,16.97
2019-05-03T00:26:31.820Z,13.73
2019-05-03T00:31:47.881Z,15.90
2019-05-03T00:37:07.700Z,11.90
2019-05-03T00:42:26.774Z,14.80
2019-05-03T00:47:43.798Z,15.47
2019-05-03T00:53:02.989Z,13.43
2019-05-03T00:58:19.286Z,15.03
2019-05-03T01:03:36.969Z,13.00
2019-05-03T01:08:55.285Z,12.13
2019-05-03T01:14:13.342Z,13.37
2019-05-03T01:19:32.023Z,12.27
2019-05-03T01:24:53.063Z,12.03
2019-05-03T01:30:12.283Z,11.33
2019-05-03T01:35:33.698Z,15.70
2019-05-03T01:40:49.703Z,12.90
2019-05-03T01:46:05.424Z,14.70
2019-05-03T01:51:41.958Z,13.23
2019-05-03T01:57:02.253Z,12.27
2019-05-03T02:02:41.967Z,11.80
2019-05-03T02:07:59.080Z,12.90
2019-05-03T02:13:15.027Z,12.63
2019-05-03T02:18:31.824Z,13.93
2019-05-03T02:23:47.748Z,12.40
2019-05-03T02:29:03.488Z,12.17
2019-05-03T02:34:19.661Z,13.60
2019-05-03T02:39:35.836Z,14.43
2019-05-03T02:44:55.365Z,15.10
2019-05-03T02:50:18.903Z,13.43
2019-05-03T02:55:36.394Z,13.53
2019-05-03T03:00:59.746Z,13.80
2019-05-03T03:06:19.699Z,13.53
2019-05-03T03:11:39.927Z,16.27
2019-05-03T03:16:59.724Z,13.10
2019-05-03T03:22:18.219Z,16.20
2019-05-03T03:27:36.219Z,17.40
2019-05-03T03:32:52.052Z,17.67
2019-05-03T03:38:25.899Z,14.77
2019-05-03T03:43:41.332Z,17.80
2019-05-03T03:48:59.048Z,18.93
2019-05-03T03:54:19.405Z,17.30
2019-05-03T03:59:36.591Z,20.47
2019-05-03T04:04:52.675Z,17.23
2019-05-03T04:10:10.863Z,17.37
2019-05-03T04:15:48.172Z,16.37
2019-05-03T04:21:05.518Z,17.20
2019-05-03T04:26:29.019Z,17.20
2019-05-03T04:31:41.480Z,18.07
2019-05-03T04:36:57.521Z,17.40
2019-05-03T04:42:16.642Z,19.13
2019-05-03T04:47:32.441Z,18.27
2019-05-03T04:52:48.783Z,18.00
2019-05-03T04:58:07.867Z,18.43
2019-05-03T05:03:26.497Z,17.63
2019-05-03T05:08:42.286Z,16.10
2019-05-03T05:13:58.190Z,15.83
2019-05-03T05:19:16.684Z,17.63
2019-05-03T05:24:32.286Z,17.63
2019-05-03T05:29:48.111Z,18.70
2019-05-03T05:35:05.184Z,17.87
2019-05-03T05:40:24.565Z,16.50
2019-05-03T05:45:40.805Z,15.80
2019-05-03T05:50:56.845Z,16.17
2019-05-03T05:56:30.339Z,18.17
2019-05-03T06:01:51.801Z,18.33
2019-05-03T06:07:26.299Z,12.90
2019-05-03T06:13:10.815Z,15.83
2019-05-03T06:18:45.212Z,16.83
2019-05-03T06:24:05.488Z,13.97
2019-05-03T06:29:21.717Z,18.50
2019-05-03T06:34:37.754Z,18.77
2019-05-03T06:39:54.885Z,19.33
2019-05-03T06:45:11.821Z,15.20
2019-05-03T06:50:29.075Z,16.90
2019-05-03T06:55:48.352Z,14.93
2019-05-03T07:01:27.534Z,15.63
2019-05-03T07:07:08.737Z,15.77
2019-05-03T07:12:25.107Z,14.67
2019-05-03T07:17:41.293Z,13.63
2019-05-03T07:22:57.516Z,15.00
2019-05-03T07:28:14.999Z,13.43
2019-05-03T07:33:34.751Z,11.67
2019-05-03T07:38:50.645Z,12.57
2019-05-03T07:44:06.549Z,10.23
2019-05-03T07:49:24.810Z,10.17
2019-05-03T07:54:40.584Z,9.73
2019-05-03T07:59:56.685Z,7.43
2019-05-03T08:05:15.535Z,9.57
2019-05-03T08:10:31.734Z,9.90
2019-05-03T08:15:47.648Z,8.53
2019-05-03T08:21:05.596Z,8.70
2019-05-03T08:26:21.987Z,13.60
2019-05-03T08:31:55.528Z,10.07
2019-05-03T08:37:15.422Z,11.43
2019-05-03T08:42:35.168Z,10.40
2019-05-03T08:47:51.415Z,9.27
2019-05-03T08:53:07.179Z,8.53
2019-05-03T08:58:25.428Z,10.53
2019-05-03T09:03:40.962Z,9.10
2019-05-03T09:08:58.410Z,10.00
2019-05-03T09:14:15.161Z,10.27
2019-05-03T09:19:32.217Z,8.60
2019-05-03T09:24:48.485Z,8.83
2019-05-03T09:30:05.030Z,11.03
2019-05-03T09:35:30.514Z,10.00
2019-05-03T09:40:38.563Z,8.17
2019-05-03T09:45:56.171Z,8.93
2019-05-03T09:51:11.974Z,10.00
2019-05-03T09:56:55.316Z,8.17
2019-05-03T10:02:05.334Z,8.00
2019-05-03T10:07:21.356Z,7.43
2019-05-03T10:12:43.682Z,10.13
2019-05-03T10:18:00.677Z,8.50
2019-05-03T10:23:35.840Z,6.53
2019-05-03T10:28:55.308Z,8.80
2019-05-03T10:34:11.133Z,4.70
2019-05-03T10:39:26.991Z,5.53
2019-05-03T10:44:44.928Z,5.90
2019-05-03T10:50:00.641Z,5.27
2019-05-03T10:55:16.387Z,7.40
2019-05-03T11:00:47.751Z,6.00
2019-05-03T11:05:49.992Z,6.17
2019-05-03T11:11:05.990Z,7.00
2019-05-03T11:16:22.210Z,5.00
2019-05-03T11:21:38.392Z,4.93
2019-05-03T11:26:56.015Z,4.37
2019-05-03T11:32:25.439Z,5.70
2019-05-03T11:37:45.361Z,8.80
2019-05-03T11:43:04.631Z,6.63
2019-05-03T11:48:20.607Z,6.27
2019-05-03T11:53:36.280Z,4.83
2019-05-03T11:58:55.106Z,6.00
2019-05-03T12:04:11.151Z,3.37
2019-05-03T12:09:26.775Z,5.53
2019-05-03T12:14:42.802Z,5.93
2019-05-03T12:20:01.226Z,5.07
2019-05-03T12:25:18.478Z,7.50
2019-05-03T12:30:35.948Z,5.10
2019-05-03T12:35:51.733Z,5.07
2019-05-03T12:41:07.753Z,4.87
2019-05-03T12:46:26.321Z,5.03
2019-05-03T12:51:42.362Z,4.10
2019-05-03T12:56:58.227Z,5.30
2019-05-03T13:02:35.501Z,5.50
2019-05-03T13:08:08.676Z,8.47
2019-05-03T13:13:27.534Z,7.23
2019-05-03T13:18:45.793Z,8.17
2019-05-03T13:24:02.247Z,6.80
2019-05-03T13:29:18.143Z,4.73
2019-05-03T13:34:35.366Z,8.57
2019-05-03T13:39:50.989Z,4.20
2019-05-03T13:45:07.715Z,7.13
2019-05-03T13:50:25.018Z,5.13
2019-05-03T13:55:40.906Z,6.70
2019-05-03T14:00:56.795Z,7.00
2019-05-03T14:06:12.463Z,6.40
2019-05-03T14:11:28.321Z,6.73
2019-05-03T14:16:45.425Z,5.67
2019-05-03T14:22:05.197Z,5.97
2019-05-03T14:27:20.774Z,4.40
2019-05-03T14:32:36.829Z,3.40
2019-05-03T14:37:52.515Z,5.50
2019-05-03T14:43:08.710Z,4.53
2019-05-03T14:48:24.977Z,5.13
2019-05-03T14:53:41.525Z,3.53
2019-05-03T14:59:15.330Z,5.80
2019-05-03T15:04:31.109Z,5.97
2019-05-03T15:09:46.976Z,6.83
2019-05-03T15:15:02.919Z,4.60
2019-05-03T15:20:18.713Z,4.70
2019-05-03T15:25:34.970Z,5.23
2019-05-03T15:30:50.538Z,3.83
2019-05-03T15:36:06.473Z,4.63
2019-05-03T15:41:22.252Z,4.93
2019-05-03T15:46:49.934Z,3.77
2019-05-03T15:52:06.062Z,3.57
2019-05-03T15:57:21.912Z,4.47
2019-05-03T16:02:40.539Z,2.50
2019-05-03T16:07:56.342Z,2.77
2019-05-03T16:13:14.306Z,2.47
2019-05-03T16:18:30.612Z,4.77
2019-05-03T16:23:46.953Z,2.60
2019-05-03T16:29:12.163Z,2.90
2019-05-03T16:34:28.102Z,2.37
2019-05-03T16:39:45.621Z,2.77
2019-05-03T16:45:05.454Z,3.37
2019-05-03T16:50:21.243Z,3.20
2019-05-03T16:55:37.306Z,2.20
2019-05-03T17:00:55.273Z,2.93
2019-05-03T17:06:39.817Z,2.80
2019-05-03T17:12:34.728Z,3.70
2019-05-03T17:17:55.313Z,3.50
2019-05-03T17:23:15.469Z,4.23
2019-05-03T17:28:31.656Z,2.63
2019-05-03T17:33:56.891Z,2.90
2019-05-03T17:39:25.514Z,4.27
2019-05-03T17:44:49.330Z,3.27
2019-05-03T17:50:09.299Z,3.00
2019-05-03T18:01:18.803Z,2.57
2019-05-03T18:06:38.475Z,3.03
2019-05-03T18:11:56.324Z,2.63
2019-05-03T18:17:14.790Z,2.07
2019-05-03T18:22:32.181Z,3.60
2019-05-03T18:27:48.018Z,1.97
2019-05-03T18:33:04.935Z,1.93
2019-05-03T18:38:25.127Z,2.07
2019-05-03T18:43:54.429Z,2.07
2019-05-03T18:49:11.283Z,3.10
2019-05-03T18:54:27.738Z,2.80
2019-05-03T18:59:45.010Z,2.57
2019-05-03T19:05:05.090Z,4.17
2019-05-03T19:10:40.945Z,1.63
2019-05-03T19:15:57.206Z,1.30
2019-05-03T19:21:14.987Z,2.10
2019-05-03T19:26:31.751Z,2.53
2019-05-03T19:31:48.107Z,2.43
2019-05-03T19:37:05.882Z,2.60
2019-05-03T19:42:27.402Z,2.23
2019-05-03T19:47:44.707Z,1.60
2019-05-03T19:53:26.890Z,1.83
2019-05-03T19:58:44.224Z,1.70
2019-05-03T20:04:10.173Z,1.90
2019-05-03T20:09:27.014Z,1.87
2019-05-03T20:14:46.180Z,2.33
2019-05-03T20:20:01.803Z,3.47
2019-05-03T20:25:17.621Z,2.27
2019-05-03T20:30:34.812Z,2.10
2019-05-03T20:35:53.782Z,3.87
2019-05-03T20:41:08.888Z,3.43
2019-05-03T20:46:29.625Z,3.83
2019-05-03T20:51:51.288Z,2.43
2019-05-03T20:57:06.093Z,1.80
2019-05-03T21:02:22.321Z,1.90
2019-05-03T21:07:38.195Z,2.50
2019-05-03T21:12:54.507Z,5.00
2019-05-03T21:18:20.925Z,5.13
2019-05-03T21:23:41.115Z,4.47
2019-05-03T21:28:57.291Z,5.23
2019-05-03T21:34:14.756Z,4.67
2019-05-03T21:39:30.590Z,4.13
2019-05-03T21:44:46.113Z,4.80
2019-05-03T21:50:04.656Z,3.23
2019-05-03T21:55:21.045Z,5.27
2019-05-03T22:01:00.329Z,3.27
2019-05-03T22:06:17.862Z,3.47
2019-05-03T22:11:35.476Z,8.77
2019-05-03T22:17:14.788Z,4.03
2019-05-03T22:22:37.032Z,4.00
2019-05-03T22:27:54.659Z,4.83
2019-05-03T22:33:10.754Z,4.73
2019-05-03T22:38:26.231Z,3.90
2019-05-03T22:43:45.528Z,3.30
2019-05-03T22:49:05.081Z,5.43
2019-05-03T22:54:27.201Z,6.03
2019-05-03T22:59:44.812Z,5.33
2019-05-03T23:05:00.865Z,3.90
2019-05-03T23:10:17.547Z,5.80
2019-05-03T23:15:34.773Z,3.93
2019-05-03T23:20:59.639Z,4.30
2019-05-03T23:26:18.186Z,3.57
2019-05-03T23:31:34.428Z,4.23
2019-05-03T23:36:50.245Z,4.60
2019-05-03T23:42:06.697Z,3.07
2019-05-03T23:47:37.160Z,4.83
2019-05-03T23:52:54.520Z,4.00
2019-05-03T23:58:10.776Z,3.93
